Comstock, Michigan
Current Conditions -  °F | °C
As of 10:53 PM on Wednesday 17 Dec 2014 (Local Time) from KAZO Reporting Station
Overcast Overcast  
Wind Chill: 22°   Ceiling: 2300
Heat Index: 29°   Visibility: 10mi
Dew Point: 20°   Wind: 7mph
Humidity: 69%   Direction: 270°W
Pressure: 30.2"   Gusts: NA
Location:  42.29°N, 85.51°W
Report Text: KAZO 180353Z AUTO 27006KT 10SM OVC023 M02/M07 A3020 RMK AO2 SLP239 T10171067
Loading
Personal Weather Stations






























Interactive Weather Map New forecast layout! Learn more

10-Day Weather Forecast

Advertisements
Track Severe Weather on mobile